Time;durP1;ratioP1;P1;durP2;ratioP2;P2;SDS_P1;SDS_P2;PMS_P1;PMS_P2;Temp;Humidity;BMP_temperature;BMP_pressure;BME280_temperature;BME280_humidity;BME280_pressure;Samples;Min_cycle;Max_cycle;Signal;HPM_P1;HPM_P2
2021/06/10 00:00:56;;;;;;;1.90;1.80;;;;;;;17.20;58.66;101201.59;5108359;28;20188;-69
2021/06/10 00:03:24;;;;;;;2.80;2.20;;;;;;;17.11;58.88;101202.41;5107035;28;20206;-68
2021/06/10 00:05:51;;;;;;;7.67;2.23;;;;;;;16.97;59.52;101207.19;5108634;28;20235;-68
2021/06/10 00:08:19;;;;;;;3.23;2.57;;;;;;;16.88;59.86;101205.28;5105470;28;20836;-68
2021/06/10 00:10:48;;;;;;;4.00;2.60;;;;;;;16.81;60.54;101198.66;5108570;28;20554;-68
2021/06/10 00:13:17;;;;;;;2.60;2.27;;;;;;;16.71;60.29;101195.88;5103630;28;20231;-68
2021/06/10 00:15:45;;;;;;;2.43;2.23;;;;;;;16.73;60.26;101193.91;5108483;28;20738;-68
2021/06/10 00:18:13;;;;;;;3.23;2.20;;;;;;;16.51;60.61;101171.44;5105681;28;20315;-69
2021/06/10 00:20:41;;;;;;;4.80;1.90;;;;;;;16.62;60.76;101204.78;5108309;28;20238;-68
2021/06/10 00:23:09;;;;;;;6.33;2.10;;;;;;;16.54;60.50;101203.72;5107531;28;20277;-69
2021/06/10 00:25:37;;;;;;;3.97;2.30;;;;;;;16.48;60.72;101201.50;5109045;28;20195;-68
2021/06/10 00:28:05;;;;;;;3.77;2.10;;;;;;;16.42;60.47;101202.91;5106918;28;20192;-68
2021/06/10 00:30:35;;;;;;;5.07;2.10;;;;;;;16.21;60.96;101181.19;5104165;28;20207;-69
2021/06/10 00:33:04;;;;;;;5.53;2.27;;;;;;;16.38;60.30;101202.31;5106644;28;20444;-69
2021/06/10 00:35:33;;;;;;;1.97;1.77;;;;;;;16.42;60.53;101205.63;5108301;28;20260;-68
2021/06/10 00:38:01;;;;;;;2.70;1.90;;;;;;;16.41;60.07;101206.59;5117333;27;20204;-69
2021/06/10 00:40:31;;;;;;;2.90;1.90;;;;;;;16.36;60.44;101193.44;5102674;28;20196;-69
2021/06/10 00:42:59;;;;;;;7.30;3.07;;;;;;;16.31;60.41;101203.81;5097674;28;20211;-68
2021/06/10 00:45:28;;;;;;;1.77;1.67;;;;;;;16.12;61.62;101204.50;5108213;28;20222;-68
2021/06/10 00:47:57;;;;;;;2.33;1.80;;;;;;;16.01;60.94;101185.59;5100260;28;20218;-68
2021/06/10 00:50:30;;;;;;;3.53;1.90;;;;;;;16.00;61.18;101199.25;5107833;28;20670;-69
2021/06/10 00:52:58;;;;;;;2.77;2.03;;;;;;;15.93;61.69;101207.03;5106336;28;20265;-67
2021/06/10 00:55:26;;;;;;;2.90;1.80;;;;;;;15.92;61.70;101213.44;5107939;28;20208;-68
2021/06/10 00:57:54;;;;;;;1.90;1.70;;;;;;;15.93;61.19;101208.88;5106419;28;20207;-68
2021/06/10 01:00:23;;;;;;;4.40;1.73;;;;;;;15.90;61.53;101212.69;5109144;28;20207;-68
2021/06/10 01:02:50;;;;;;;4.70;1.73;;;;;;;15.80;61.70;101193.63;5108329;28;20594;-68
2021/06/10 01:05:19;;;;;;;5.47;1.80;;;;;;;15.83;61.62;101203.34;5107575;28;20215;-68
2021/06/10 01:07:58;;;;;;;1.90;1.80;;;;;;;15.67;61.63;101187.50;5106536;28;20192;-68
2021/06/10 01:10:35;;;;;;;5.67;1.70;;;;;;;15.77;61.25;101209.28;5111655;27;20224;-68
2021/06/10 01:13:09;;;;;;;2.10;1.90;;;;;;;15.66;61.66;101207.47;5123496;27;20203;-68
2021/06/10 01:15:40;;;;;;;4.17;1.80;;;;;;;15.57;61.86;101180.22;5108760;28;20245;-68
2021/06/10 01:18:08;;;;;;;3.03;2.00;;;;;;;15.62;62.05;101208.69;5109077;28;20599;-68
2021/06/10 01:20:39;;;;;;;4.23;1.90;;;;;;;15.66;61.61;101204.75;5102856;27;20640;-68
2021/06/10 01:23:20;;;;;;;3.37;1.77;;;;;;;15.61;62.08;101203.38;5107825;27;20226;-68
2021/06/10 01:26:03;;;;;;;2.00;1.80;;;;;;;15.62;62.06;101208.69;5110714;28;20204;-67
2021/06/10 01:28:35;;;;;;;1.67;1.50;;;;;;;15.55;61.47;101202.00;5108892;28;20536;-67
2021/06/10 01:31:06;;;;;;;3.60;1.70;;;;;;;15.62;61.12;101211.41;5099513;28;20744;-68
2021/06/10 01:33:39;;;;;;;3.33;1.90;;;;;;;15.57;61.53;101208.16;5108901;28;20681;-68
2021/06/10 01:36:10;;;;;;;4.67;2.00;;;;;;;15.48;61.81;101211.63;5111184;28;20222;-68
2021/06/10 01:38:40;;;;;;;3.73;1.70;;;;;;;15.44;61.66;101211.00;5108407;27;20279;-68
2021/06/10 01:41:10;;;;;;;2.10;1.70;;;;;;;15.21;62.04;101184.91;5108656;28;20203;-68
2021/06/10 01:43:41;;;;;;;2.13;1.80;;;;;;;15.36;61.87;101220.72;5110930;28;20663;-68
2021/06/10 01:46:11;;;;;;;4.47;1.80;;;;;;;15.37;62.10;101211.63;5110467;28;20238;-68
2021/06/10 01:48:39;;;;;;;1.70;1.60;;;;;;;15.29;62.67;101211.34;5110008;28;20704;-68
2021/06/10 01:51:08;;;;;;;2.20;2.00;;;;;;;15.21;62.73;101210.13;5110097;28;20196;-68
2021/06/10 01:53:38;;;;;;;6.40;1.73;;;;;;;15.23;62.58;101216.28;5108809;28;20561;-68
2021/06/10 01:56:08;;;;;;;2.43;2.00;;;;;;;15.18;62.68;101213.09;5098359;28;20811;-68
2021/06/10 01:58:36;;;;;;;2.40;1.70;;;;;;;15.14;62.85;101217.03;5097065;28;20558;-68
2021/06/10 02:01:07;;;;;;;1.93;1.83;;;;;;;15.12;63.12;101207.31;5097677;28;20204;-68
2021/06/10 02:03:36;;;;;;;1.93;1.83;;;;;;;15.02;63.73;101211.72;5109005;27;20202;-67
2021/06/10 02:06:06;;;;;;;3.70;1.90;;;;;;;14.95;63.18;101203.22;5109329;28;20280;-67
2021/06/10 02:08:34;;;;;;;5.20;1.87;;;;;;;14.90;63.60;101209.00;5110186;27;20196;-69
2021/06/10 02:11:02;;;;;;;2.90;1.90;;;;;;;14.84;63.62;101193.25;5108184;28;20204;-68
2021/06/10 02:13:32;;;;;;;2.13;1.70;;;;;;;14.91;63.74;101207.16;5108825;28;20235;-69
2021/06/10 02:16:09;;;;;;;2.33;1.90;;;;;;;14.94;62.87;101206.03;5109250;28;20205;-68
2021/06/10 02:18:39;;;;;;;3.30;1.93;;;;;;;14.93;63.30;101212.44;5110007;28;20622;-68
2021/06/10 02:21:09;;;;;;;2.57;1.97;;;;;;;14.47;63.20;101125.00;5108947;28;20187;-69
2021/06/10 02:23:37;;;;;;;3.17;1.70;;;;;;;14.89;63.83;101199.16;5108969;28;20207;-69
2021/06/10 02:26:06;;;;;;;1.97;1.87;;;;;;;14.91;63.72;101199.03;5109128;27;20460;-69
2021/06/10 02:28:34;;;;;;;3.27;1.70;;;;;;;14.90;63.71;101191.91;5099386;28;20208;-68
2021/06/10 02:31:04;;;;;;;2.57;1.90;;;;;;;14.92;64.02;101195.34;5103502;28;20245;-68
2021/06/10 02:33:42;;;;;;;3.30;1.80;;;;;;;15.12;64.26;101170.28;5107237;28;20187;-67
2021/06/10 02:36:13;;;;;;;2.20;1.87;;;;;;;15.80;64.62;101188.22;5106816;28;20507;-68
2021/06/10 02:38:46;;;;;;;1.80;1.67;;;;;;;16.32;64.59;101170.31;5107767;28;20204;-68
2021/06/10 02:41:15;;;;;;;3.70;1.97;;;;;;;17.07;63.50;101180.97;5109485;28;20658;-68
2021/06/10 02:43:45;;;;;;;3.67;1.73;;;;;;;17.66;61.91;101176.59;5107533;28;20246;-70
2021/06/10 02:46:15;;;;;;;2.17;1.97;;;;;;;18.39;60.53;101186.19;5104354;28;20219;-68
2021/06/10 02:48:46;;;;;;;3.33;1.80;;;;;;;18.93;59.63;101157.47;5107228;28;20428;-69
2021/06/10 02:51:15;;;;;;;1.70;1.60;;;;;;;19.80;58.63;101187.94;5102766;28;20743;-69
2021/06/10 02:53:45;;;;;;;4.30;1.60;;;;;;;20.50;56.11;101177.25;5093152;27;20193;-69
2021/06/10 02:56:16;;;;;;;2.03;1.53;;;;;;;21.16;54.19;101192.25;5107684;28;20231;-69
2021/06/10 02:58:45;;;;;;;1.73;1.63;;;;;;;21.34;52.36;101185.72;5123805;27;20200;-69
2021/06/10 03:01:13;;;;;;;1.60;1.50;;;;;;;21.50;51.73;101182.22;5102375;28;20667;-70
2021/06/10 03:03:43;;;;;;;1.90;1.60;;;;;;;21.21;51.06;101152.50;5104731;28;20264;-69
2021/06/10 03:06:12;;;;;;;2.00;1.50;;;;;;;21.17;51.35;101181.16;5107638;27;20587;-70
2021/06/10 03:08:40;;;;;;;1.57;1.30;;;;;;;21.00;51.47;101180.19;5112237;27;20188;-70
2021/06/10 03:11:09;;;;;;;4.10;1.60;;;;;;;21.09;51.99;101146.44;5106957;28;20518;-69
2021/06/10 03:13:39;;;;;;;1.40;1.40;;;;;;;21.30;51.48;101173.41;5107427;28;20721;-69
2021/06/10 03:16:07;;;;;;;1.60;1.50;;;;;;;21.16;51.12;101178.59;5107801;28;20680;-69
2021/06/10 03:18:36;;;;;;;1.73;1.63;;;;;;;20.81;51.49;101185.00;5106847;28;20598;-69
2021/06/10 03:21:04;;;;;;;1.50;1.40;;;;;;;20.45;52.59;101182.31;5105284;28;20192;-69
2021/06/10 03:23:33;;;;;;;1.53;1.43;;;;;;;20.25;53.34;101178.03;5102468;27;20200;-69
2021/06/10 03:26:02;;;;;;;1.70;1.57;;;;;;;20.01;53.96;101179.50;5107270;28;20725;-69
2021/06/10 03:28:30;;;;;;;1.80;1.70;;;;;;;19.71;55.34;101182.56;5107150;27;20199;-69
2021/06/10 03:30:58;;;;;;;1.53;1.43;;;;;;;19.65;55.60;101172.28;5105930;28;20571;-69
2021/06/10 03:33:28;;;;;;;2.30;1.63;;;;;;;19.80;55.14;101184.34;5108192;28;20211;-70
2021/06/10 03:35:56;;;;;;;1.63;1.53;;;;;;;19.68;55.30;101174.69;5103916;28;20200;-68
2021/06/10 03:38:26;;;;;;;2.80;1.43;;;;;;;19.67;55.47;101183.88;5104751;28;20695;-68
2021/06/10 03:40:56;;;;;;;1.73;1.53;;;;;;;19.76;55.34;101182.97;5103251;28;20227;-68
2021/06/10 03:43:24;;;;;;;1.70;1.60;;;;;;;19.67;56.06;101184.72;5106493;28;20245;-68
2021/06/10 03:45:52;;;;;;;3.10;1.67;;;;;;;19.01;56.55;101103.16;5101428;28;20303;-68
2021/06/10 03:48:20;;;;;;;1.60;1.50;;;;;;;19.42;57.00;101178.09;5105864;28;20192;-67
2021/06/10 03:50:48;;;;;;;1.40;1.30;;;;;;;19.37;57.92;101179.56;5096155;28;20196;-68
2021/06/10 03:53:15;;;;;;;1.87;1.33;;;;;;;19.67;56.29;101178.44;5103121;28;20253;-68
2021/06/10 03:55:43;;;;;;;4.00;1.37;;;;;;;19.58;56.15;101173.88;5099802;28;20200;-68
2021/06/10 03:58:12;;;;;;;4.10;1.20;;;;;;;19.46;55.82;101129.59;5105333;28;20203;-68
2021/06/10 04:00:39;;;;;;;2.13;1.50;;;;;;;19.83;55.17;101174.00;5100762;28;20188;-69
2021/06/10 04:03:07;;;;;;;4.30;1.50;;;;;;;19.64;56.17;101178.72;5106109;28;20202;-69
2021/06/10 04:05:35;;;;;;;1.60;1.23;;;;;;;19.71;56.13;101174.38;5105660;28;20196;-68
2021/06/10 04:08:03;;;;;;;2.90;1.30;;;;;;;19.80;55.14;101165.28;5108552;28;20188;-68
2021/06/10 04:10:30;;;;;;;3.67;1.30;;;;;;;19.95;55.48;101171.94;5105680;28;20207;-67
2021/06/10 04:12:58;;;;;;;2.20;1.40;;;;;;;19.99;55.16;101178.78;5101062;28;20679;-68
2021/06/10 04:15:27;;;;;;;1.40;1.30;;;;;;;20.02;54.96;101170.31;5104151;28;20196;-68
2021/06/10 04:17:55;;;;;;;4.13;1.40;;;;;;;19.95;54.50;101171.94;5105679;28;20235;-68
2021/06/10 04:20:22;;;;;;;1.33;1.23;;;;;;;19.83;54.45;101157.66;5108307;28;20290;-68
2021/06/10 04:22:50;;;;;;;1.87;1.60;;;;;;;19.90;54.89;101171.53;5106206;28;20192;-70
2021/06/10 04:25:18;;;;;;;1.50;1.40;;;;;;;20.00;53.95;101171.47;5101337;28;20671;-68
2021/06/10 04:27:45;;;;;;;2.97;1.30;;;;;;;19.99;53.88;101162.44;5103206;28;20220;-68
2021/06/10 04:30:14;;;;;;;3.83;1.43;;;;;;;19.96;53.79;101151.84;5104843;28;20204;-69
2021/06/10 04:32:45;;;;;;;1.23;1.23;;;;;;;19.99;54.43;101156.97;5104296;28;20594;-69
2021/06/10 04:35:14;;;;;;;2.47;1.43;;;;;;;20.02;54.43;101162.13;5102255;28;20700;-69
2021/06/10 04:37:41;;;;;;;2.50;1.53;;;;;;;20.08;53.64;101166.09;5107322;28;20607;-69
2021/06/10 04:40:10;;;;;;;1.50;1.40;;;;;;;20.03;53.84;101152.94;5108324;27;20192;-69
2021/06/10 04:42:38;;;;;;;1.33;1.23;;;;;;;20.08;53.08;101156.03;5110226;27;20192;-69
2021/06/10 04:45:07;;;;;;;4.03;1.70;;;;;;;20.05;53.37;101150.91;5108911;27;20203;-69
2021/06/10 04:47:34;;;;;;;2.30;1.40;;;;;;;20.03;53.90;101155.66;5108476;28;20230;-69
2021/06/10 04:50:04;;;;;;;1.73;1.30;;;;;;;20.01;54.07;101145.91;5106668;27;20198;-69
2021/06/10 04:52:32;;;;;;;2.67;1.43;;;;;;;19.98;53.60;101155.25;5108538;28;20198;-69
2021/06/10 04:55:00;;;;;;;3.50;1.43;;;;;;;20.00;53.59;101153.25;5102130;27;20192;-69
2021/06/10 04:57:27;;;;;;;2.17;1.33;;;;;;;20.06;54.49;101155.34;5107649;28;20667;-69
2021/06/10 04:59:55;;;;;;;2.10;1.47;;;;;;;20.21;54.77;101160.25;5106149;27;20203;-69
2021/06/10 05:02:22;;;;;;;2.43;1.30;;;;;;;20.31;55.00;101150.97;5110909;28;20199;-69
2021/06/10 05:04:50;;;;;;;2.17;1.30;;;;;;;20.22;54.92;101131.97;5105835;27;20196;-69
2021/06/10 05:07:19;;;;;;;1.57;1.30;;;;;;;20.55;54.57;101153.09;5105047;27;20698;-68
2021/06/10 05:09:47;;;;;;;1.70;1.40;;;;;;;20.69;54.73;101151.66;5096982;27;20211;-69
2021/06/10 05:12:14;;;;;;;1.43;1.33;;;;;;;20.78;55.26;101148.81;5102680;27;20203;-69
2021/06/10 05:14:42;;;;;;;2.60;1.60;;;;;;;20.96;54.44;101137.84;5102115;27;20798;-69
2021/06/10 05:17:10;;;;;;;2.00;1.37;;;;;;;20.89;54.13;101130.47;5118229;27;20686;-68
2021/06/10 05:19:38;;;;;;;4.70;1.50;;;;;;;20.91;54.64;101123.81;5100934;27;20636;-68
2021/06/10 05:22:05;;;;;;;1.63;1.50;;;;;;;21.35;54.02;101151.91;5103918;27;20212;-68
2021/06/10 05:24:34;;;;;;;1.60;1.50;;;;;;;21.43;54.54;101147.47;5102785;27;20230;-68
2021/06/10 05:27:06;;;;;;;1.37;1.27;;;;;;;21.68;54.03;101149.28;5106129;27;20216;-69
2021/06/10 05:29:34;;;;;;;2.10;1.37;;;;;;;21.96;53.42;101148.00;5107759;28;20583;-69
2021/06/10 05:32:02;;;;;;;1.30;1.30;;;;;;;21.97;54.09;101146.97;5108136;28;20200;-68
2021/06/10 05:34:29;;;;;;;1.53;1.27;;;;;;;22.33;52.70;101145.84;5105226;28;20196;-69
2021/06/10 05:36:57;;;;;;;1.50;1.40;;;;;;;22.41;51.23;101119.34;5118541;27;20197;-67
2021/06/10 05:39:24;;;;;;;1.60;1.50;;;;;;;22.91;51.24;101156.63;5107246;27;20256;-68
2021/06/10 05:41:54;;;;;;;2.47;1.70;;;;;;;23.32;49.91;101151.06;5107351;27;20204;-68
2021/06/10 05:44:21;;;;;;;2.70;1.30;;;;;;;23.46;49.80;101158.53;5108789;28;20192;-68
2021/06/10 05:46:49;;;;;;;2.50;1.57;;;;;;;23.78;48.33;101149.31;5110187;28;20277;-67
2021/06/10 05:49:17;;;;;;;2.83;1.20;;;;;;;23.98;47.53;101144.22;5109426;28;20283;-67
2021/06/10 05:51:45;;;;;;;1.47;1.37;;;;;;;24.29;47.14;101153.31;5098722;28;20196;-69
2021/06/10 05:54:13;;;;;;;6.30;1.40;;;;;;;24.28;47.28;101154.34;5100212;28;20196;-69
2021/06/10 05:56:41;;;;;;;1.83;1.30;;;;;;;24.10;48.19;101148.25;5106016;27;20247;-69
2021/06/10 05:59:10;;;;;;;1.40;1.30;;;;;;;24.76;45.34;101149.44;5104275;27;20219;-69
2021/06/10 06:01:37;;;;;;;2.83;1.40;;;;;;;24.72;44.75;101143.47;5109229;28;20456;-69
2021/06/10 06:04:05;;;;;;;1.50;1.40;;;;;;;24.77;46.10;101129.16;5106649;27;20753;-69
2021/06/10 06:06:32;;;;;;;4.53;1.63;;;;;;;25.21;45.69;101153.16;5120511;27;20605;-69
2021/06/10 06:09:00;;;;;;;2.25;1.27;;;;;;;25.37;44.93;101148.28;5109491;28;20199;-69
2021/06/10 06:11:28;;;;;;;7.38;1.48;;;;;;;25.63;44.65;101153.28;5110046;28;20569;-69
2021/06/10 06:14:06;;;;;;;1.60;1.50;;;;;;;25.85;43.89;101158.88;5107868;28;20458;-68
2021/06/10 06:16:36;;;;;;;3.42;1.30;;;;;;;26.19;42.87;101153.56;5108560;28;20222;-68
2021/06/10 06:19:05;;;;;;;1.30;1.20;;;;;;;26.56;41.89;101155.19;5106534;28;20192;-68
2021/06/10 06:21:34;;;;;;;2.42;1.60;;;;;;;25.62;42.86;101091.06;5106833;28;20208;-68
2021/06/10 06:24:02;;;;;;;2.03;1.30;;;;;;;25.83;42.67;101153.56;5101081;28;20189;-68
2021/06/10 06:26:30;;;;;;;2.00;1.65;;;;;;;25.76;44.37;101149.03;5108291;28;20203;-68
2021/06/10 06:29:00;;;;;;;2.25;1.50;;;;;;;26.41;43.17;101151.69;5109065;28;20702;-69
2021/06/10 06:31:28;;;;;;;1.52;1.40;;;;;;;26.12;43.41;101149.88;5107037;28;20236;-69
2021/06/10 06:33:57;;;;;;;3.95;1.50;;;;;;;26.22;43.14;101144.88;5108068;28;20220;-69
2021/06/10 06:36:25;;;;;;;3.45;1.50;;;;;;;26.09;43.72;101153.03;5120610;27;20203;-68
2021/06/10 06:38:53;;;;;;;3.20;1.70;;;;;;;26.34;42.76;101111.38;5104551;28;20550;-69
2021/06/10 06:41:20;;;;;;;3.30;1.90;;;;;;;26.64;42.45;101151.47;5105891;28;20483;-68
2021/06/10 06:43:48;;;;;;;2.65;1.73;;;;;;;26.99;42.45;101159.84;5105775;28;20566;-68
2021/06/10 06:46:19;;;;;;;4.90;2.00;;;;;;;26.98;41.76;101158.09;5104759;28;20199;-69
2021/06/10 06:48:47;;;;;;;1.70;1.50;;;;;;;27.21;41.49;101145.75;5103170;28;20219;-69
2021/06/10 06:51:17;;;;;;;3.38;1.80;;;;;;;27.38;40.74;101126.97;5105875;28;20188;-70
2021/06/10 06:53:44;;;;;;;2.45;1.73;;;;;;;27.56;40.66;101156.78;5106755;28;20203;-69
2021/06/10 06:56:21;;;;;;;3.13;1.90;;;;;;;27.68;41.02;101170.88;5106943;28;20196;-70
2021/06/10 06:58:49;;;;;;;3.90;1.80;;;;;;;27.60;40.28;101174.63;5105394;28;20207;-69
2021/06/10 07:01:17;;;;;;;3.72;2.13;;;;;;;27.86;40.44;101168.41;5106722;28;20196;-70
2021/06/10 07:03:45;;;;;;;2.33;2.10;;;;;;;27.52;40.79;101178.41;5106731;27;20659;-68
2021/06/10 07:06:12;;;;;;;5.35;1.83;;;;;;;27.39;40.81;101141.63;5105782;28;20257;-69
2021/06/10 07:08:42;;;;;;;2.05;1.80;;;;;;;27.92;41.01;101169.50;5106334;27;20230;-69
2021/06/10 07:11:09;;;;;;;4.70;1.80;;;;;;;28.07;39.38;101162.72;5105944;27;20197;-69
2021/06/10 07:13:38;;;;;;;1.63;1.52;;;;;;;28.31;39.98;101163.22;5104251;28;20661;-69
2021/06/10 07:16:06;;;;;;;2.63;1.70;;;;;;;28.18;39.41;101172.31;5104083;28;20694;-69
2021/06/10 07:18:33;;;;;;;2.08;1.60;;;;;;;28.18;39.69;101165.94;5100634;28;20192;-68
2021/06/10 07:21:01;;;;;;;2.40;1.77;;;;;;;28.25;40.55;101169.59;5103747;28;20252;-70
2021/06/10 07:23:29;;;;;;;2.92;2.15;;;;;;;28.25;39.98;101155.78;5104432;28;20222;-68
2021/06/10 07:25:58;;;;;;;2.67;1.95;;;;;;;28.86;39.21;101164.78;5103672;28;20690;-69
2021/06/10 07:28:26;;;;;;;4.22;1.90;;;;;;;28.97;37.84;101161.38;5104729;28;20212;-69
2021/06/10 07:30:54;;;;;;;3.33;1.83;;;;;;;29.02;38.05;101171.78;5106675;28;20196;-70
2021/06/10 07:33:21;;;;;;;3.08;2.13;;;;;;;29.06;38.72;101168.38;5102864;27;20260;-68
2021/06/10 07:35:49;;;;;;;2.45;1.70;;;;;;;29.41;38.23;101173.66;5106270;28;20515;-68
2021/06/10 07:38:16;;;;;;;2.53;1.88;;;;;;;29.23;37.79;101159.63;5103526;28;20196;-69
2021/06/10 07:40:44;;;;;;;5.35;1.67;;;;;;;29.19;37.46;101170.28;5103151;28;20199;-69
2021/06/10 07:43:13;;;;;;;3.17;1.85;;;;;;;29.46;37.86;101176.63;5106859;28;20563;-69
2021/06/10 07:45:41;;;;;;;6.05;2.00;;;;;;;29.71;36.76;101153.75;5102416;28;20241;-68
2021/06/10 07:48:09;;;;;;;2.00;1.83;;;;;;;30.08;36.67;101179.81;5104458;28;20227;-69
2021/06/10 07:50:36;;;;;;;2.83;2.20;;;;;;;30.30;36.54;101183.91;5103586;28;20211;-69
2021/06/10 07:53:05;;;;;;;3.50;2.40;;;;;;;29.90;36.51;101181.34;5103186;28;20515;-69
2021/06/10 07:55:32;;;;;;;2.95;2.20;;;;;;;29.92;36.10;101187.50;5105135;28;20207;-69
2021/06/10 07:58:01;;;;;;;3.53;1.98;;;;;;;30.20;36.34;101186.34;5106124;28;20184;-69
2021/06/10 08:00:30;;;;;;;4.65;2.40;;;;;;;30.38;36.27;101194.78;5103739;28;20598;-69
2021/06/10 08:02:58;;;;;;;2.53;2.00;;;;;;;30.61;35.54;101191.41;5106882;28;20571;-69
2021/06/10 08:05:26;;;;;;;3.83;2.38;;;;;;;30.33;36.06;101194.59;5105523;28;20199;-69
2021/06/10 08:07:55;;;;;;;3.28;2.00;;;;;;;30.54;35.85;101191.44;5104938;28;20265;-70
2021/06/10 08:10:23;;;;;;;2.40;2.00;;;;;;;30.49;36.00;101193.19;5103979;28;20646;-68
2021/06/10 08:12:51;;;;;;;2.78;2.03;;;;;;;30.29;35.73;101193.31;5105065;28;20188;-69
2021/06/10 08:15:20;;;;;;;3.35;2.03;;;;;;;30.68;35.97;101192.25;5104196;28;20199;-69
2021/06/10 08:17:49;;;;;;;2.03;1.83;;;;;;;30.92;35.50;101190.56;5105427;28;20628;-70
2021/06/10 08:20:19;;;;;;;3.38;2.10;;;;;;;30.96;35.07;101197.34;5103304;28;20562;-69
2021/06/10 08:22:47;;;;;;;2.38;2.10;;;;;;;31.19;35.43;101194.78;5105018;28;20196;-69
2021/06/10 08:25:15;;;;;;;2.00;1.90;;;;;;;31.23;34.70;101205.44;5086755;28;20672;-69
2021/06/10 08:27:43;;;;;;;4.20;2.10;;;;;;;30.99;34.50;101155.25;5102769;28;20212;-69
2021/06/10 08:30:13;;;;;;;4.20;1.70;;;;;;;30.95;34.88;101189.25;5105959;28;20203;-70
2021/06/10 08:32:41;;;;;;;3.38;1.98;;;;;;;31.25;34.59;101203.28;5100688;28;20870;-71
2021/06/10 08:35:11;;;;;;;2.97;1.80;;;;;;;30.57;35.58;101154.09;5105276;28;20690;-69
2021/06/10 08:37:39;;;;;;;10.05;2.00;;;;;;;30.90;35.39;101189.91;5102774;28;20192;-70
2021/06/10 08:40:08;;;;;;;4.65;1.90;;;;;;;30.60;35.34;101184.16;5104188;28;20280;-69
2021/06/10 08:42:37;;;;;;;2.58;1.73;;;;;;;30.69;35.68;101199.47;5100122;28;20196;-70
2021/06/10 08:45:09;;;;;;;1.95;1.70;;;;;;;30.27;36.31;101187.16;5105148;28;20221;-71
2021/06/10 08:47:38;;;;;;;1.75;1.60;;;;;;;30.13;36.27;101200.25;5113033;27;20235;-69
2021/06/10 08:50:08;;;;;;;2.45;1.60;;;;;;;30.52;36.12;101196.34;5103528;28;20655;-69
2021/06/10 08:52:38;;;;;;;6.28;1.83;;;;;;;30.43;35.60;101186.63;5100445;28;20199;-69
2021/06/10 08:55:08;;;;;;;1.48;1.38;;;;;;;30.80;35.13;101201.50;5104509;28;20199;-70
2021/06/10 08:57:36;;;;;;;3.05;1.60;;;;;;;30.04;35.68;101195.19;5103486;28;20200;-69
2021/06/10 09:00:25;;;;;;;1.70;1.60;;;;;;;30.14;36.39;101198.31;5102366;28;20506;-69
2021/06/10 09:02:53;;;;;;;2.95;1.70;;;;;;;29.45;36.47;101197.09;5102407;28;20196;-70
2021/06/10 09:05:22;;;;;;;6.40;1.83;;;;;;;28.87;36.98;101166.50;5104704;28;20609;-70
2021/06/10 09:07:54;;;;;;;1.50;1.40;;;;;;;29.12;37.82;101194.34;5102815;28;20535;-68
2021/06/10 09:10:25;;;;;;;2.10;1.85;;;;;;;29.37;37.56;101191.72;5103891;28;20203;-68
2021/06/10 09:12:56;;;;;;;1.70;1.60;;;;;;;29.64;37.28;101195.31;5104106;28;20203;-68
2021/06/10 09:15:27;;;;;;;1.90;1.75;;;;;;;29.12;37.97;101155.63;5105380;28;20207;-68
2021/06/10 09:17:55;;;;;;;1.85;1.60;;;;;;;29.44;37.33;101188.97;5102786;28;20188;-68
2021/06/10 09:20:39;;;;;;;1.88;1.67;;;;;;;29.43;37.33;101182.56;5103817;28;20672;-69
2021/06/10 09:23:22;;;;;;;2.50;1.92;;;;;;;29.73;36.09;101187.63;5108693;27;20560;-69
2021/06/10 09:26:00;;;;;;;2.15;1.60;;;;;;;29.77;36.26;101192.50;5109104;28;20271;-69
2021/06/10 09:28:32;;;;;;;1.55;1.45;;;;;;;30.06;36.77;101176.41;5104576;28;20212;-69
2021/06/10 09:31:00;;;;;;;2.25;1.80;;;;;;;29.78;37.38;101190.59;5106412;28;20686;-68
2021/06/10 09:33:38;;;;;;;2.17;1.98;;;;;;;29.86;36.56;101193.94;5105220;28;20590;-68
2021/06/10 09:36:07;;;;;;;1.73;1.60;;;;;;;30.25;36.13;101186.53;5107316;28;20292;-69
2021/06/10 09:38:36;;;;;;;1.73;1.63;;;;;;;30.61;35.56;101190.56;5105234;28;20245;-70
2021/06/10 09:41:05;;;;;;;6.25;2.00;;;;;;;29.99;36.24;101165.31;5108936;28;20608;-71
2021/06/10 09:43:43;;;;;;;2.80;1.95;;;;;;;30.73;35.51;101194.34;5106636;28;20279;-70
2021/06/10 09:46:11;;;;;;;2.88;1.95;;;;;;;31.12;35.25;101193.97;5109038;28;20414;-70
2021/06/10 09:48:39;;;;;;;2.60;2.00;;;;;;;31.19;35.25;101185.59;5103385;28;20208;-70
2021/06/10 09:51:20;;;;;;;3.88;2.10;;;;;;;31.10;34.76;101162.81;5107336;28;20400;-70
2021/06/10 09:53:49;;;;;;;1.70;1.60;;;;;;;31.09;34.26;101190.81;5106361;28;20199;-69
2021/06/10 09:56:17;;;;;;;1.80;1.70;;;;;;;30.89;35.60;101188.19;5106240;28;20286;-70
2021/06/10 09:58:53;;;;;;;2.08;1.73;;;;;;;31.51;34.85;101183.53;5106834;28;20192;-70
2021/06/10 10:01:23;;;;;;;1.50;1.40;;;;;;;31.59;34.26;101182.41;5106705;28;20188;-70
2021/06/10 10:03:52;;;;;;;2.78;1.77;;;;;;;31.46;34.27;101147.28;5100572;28;20210;-70
2021/06/10 10:06:23;;;;;;;2.97;1.85;;;;;;;31.72;34.31;101180.34;5109076;28;20201;-70
2021/06/10 10:08:55;;;;;;;4.45;1.80;;;;;;;31.45;34.25;101174.22;5117395;27;20310;-70
2021/06/10 10:11:24;;;;;;;1.50;1.40;;;;;;;31.37;34.88;101184.78;5107879;28;20211;-69
2021/06/10 10:13:54;;;;;;;3.90;1.67;;;;;;;30.98;34.78;101175.75;5105562;28;20251;-69
2021/06/10 10:16:23;;;;;;;1.77;1.60;;;;;;;31.11;35.20;101186.72;5106100;28;20200;-70
2021/06/10 10:18:53;;;;;;;1.90;1.70;;;;;;;30.61;35.52;101151.75;5106252;27;20220;-69
2021/06/10 10:21:26;;;;;;;1.70;1.60;;;;;;;30.73;35.75;101184.09;5104815;28;20262;-70
2021/06/10 10:23:59;;;;;;;1.98;1.77;;;;;;;30.93;35.22;101194.19;5104330;27;20206;-71
2021/06/10 10:26:27;;;;;;;2.13;1.70;;;;;;;30.76;35.62;101189.19;5104652;28;20311;-68
2021/06/10 10:28:55;;;;;;;1.95;1.52;;;;;;;30.51;35.95;101185.50;5106815;27;20266;-71
2021/06/10 10:31:25;;;;;;;3.15;1.88;;;;;;;30.72;35.16;101195.41;5106183;28;20195;-68
2021/06/10 10:33:53;;;;;;;5.40;1.60;;;;;;;30.91;35.50;101197.16;5102980;28;20283;-70
2021/06/10 10:36:23;;;;;;;1.80;1.70;;;;;;;31.02;35.01;101187.25;5106453;28;20207;-70
2021/06/10 10:39:04;;;;;;;3.80;1.58;;;;;;;30.36;35.77;101152.56;5103199;28;20701;-69
2021/06/10 10:41:46;;;;;;;2.05;1.90;;;;;;;30.94;35.93;101196.72;5105680;28;20609;-70
2021/06/10 10:44:21;;;;;;;6.30;2.00;;;;;;;30.35;36.68;101194.38;5103583;27;20195;-70
2021/06/10 10:47:08;;;;;;;2.00;1.80;;;;;;;29.91;36.89;101187.75;5106393;28;20195;-70
2021/06/10 10:49:41;;;;;;;2.28;1.80;;;;;;;29.67;37.18;101184.63;5095891;28;20586;-69
2021/06/10 10:52:27;;;;;;;1.92;1.80;;;;;;;29.61;37.39;101190.19;5104139;28;20208;-69
2021/06/10 10:55:13;;;;;;;1.80;1.70;;;;;;;29.50;37.20;101171.50;5106567;28;20195;-69
2021/06/10 10:57:42;;;;;;;1.63;1.52;;;;;;;29.09;37.82;101185.63;5103405;28;20223;-70
2021/06/10 11:00:13;;;;;;;3.00;1.95;;;;;;;28.75;38.68;101169.00;5104083;28;20232;-69
2021/06/10 11:02:49;;;;;;;5.57;1.65;;;;;;;29.02;38.39;101178.16;5105977;28;20196;-69
2021/06/10 11:05:33;;;;;;;3.13;1.80;;;;;;;28.98;38.79;101187.09;5104574;28;20553;-69
2021/06/10 11:08:01;;;;;;;2.17;1.77;;;;;;;28.89;38.53;101183.72;5103891;28;20203;-68
2021/06/10 11:11:03;;;;;;;3.60;1.67;;;;;;;28.75;39.66;101185.59;5106366;28;20222;-69
2021/06/10 11:13:32;;;;;;;1.92;1.60;;;;;;;28.64;39.42;101177.94;5106991;28;20235;-68
2021/06/10 11:16:03;;;;;;;1.70;1.60;;;;;;;28.66;39.34;101173.03;5106590;27;20260;-69
2021/06/10 11:18:45;;;;;;;5.30;2.33;;;;;;;28.53;38.96;101169.44;5103544;28;20211;-69
2021/06/10 11:21:34;;;;;;;1.67;1.30;;;;;;;28.63;38.99;101170.72;5106159;28;20565;-70
2021/06/10 11:24:13;;;;;;;2.42;1.60;;;;;;;28.32;39.25;101106.91;5104067;28;20627;-70
2021/06/10 11:26:48;;;;;;;2.13;1.55;;;;;;;28.49;38.71;101163.47;5104928;28;20200;-70
2021/06/10 11:29:16;;;;;;;1.90;1.70;;;;;;;27.99;38.77;101146.34;5097547;28;20272;-70
2021/06/10 11:32:04;;;;;;;1.80;1.70;;;;;;;28.22;39.80;101162.56;5101905;28;20655;-68
2021/06/10 11:34:32;;;;;;;4.70;1.40;;;;;;;28.46;39.75;101169.41;5104725;28;20199;-69
2021/06/10 11:37:00;;;;;;;2.35;1.90;;;;;;;28.30;39.86;101164.28;5105248;28;20720;-70